Time;durP1;ratioP1;P1;durP2;ratioP2;P2;SDS_P1;SDS_P2;PMS_P1;PMS_P2;Temp;Humidity;BMP_temperature;BMP_pressure;BME280_temperature;BME280_humidity;BME280_pressure;Samples;Min_cycle;Max_cycle;Signal;HPM_P1;HPM_P2
2021/06/17 00:01:22;;;;;;;;;;;;;;;-144.31;78.76;74135.78;4958836;28;20274;-74
2021/06/17 00:03:50;;;;;;;;;;;;;;;-144.31;78.52;74141.78;4960534;28;20336;-77
2021/06/17 00:06:15;;;;;;;;;;;;;;;-144.31;78.50;74143.78;4956733;28;19914;-74
2021/06/17 00:08:40;;;;;;;;;;;;;;;-144.31;78.33;74149.78;4966477;28;19917;-74
2021/06/17 00:11:06;;;;;;;;;;;;;;;-144.31;78.16;74147.78;4960489;28;20407;-75
2021/06/17 00:13:35;;;;;;;;;;;;;;;-144.31;78.16;74159.75;4964048;28;20017;-75
2021/06/17 00:16:02;;;;;;;;;;;;;;;-144.31;78.00;74151.78;4974338;28;19922;-74
2021/06/17 00:18:28;;;;;;;;;;;;;;;-144.31;77.97;74155.75;4963332;28;20400;-75
2021/06/17 00:20:54;;;;;;;;;;;;;;;-144.31;78.10;74163.75;4965621;28;20009;-74
2021/06/17 00:23:19;;;;;;;;;;;;;;;-144.31;77.98;74141.78;4961758;28;19914;-73
2021/06/17 00:25:44;;;;;;;;;;;;;;;-144.31;77.70;74123.81;4963263;28;19918;-73
2021/06/17 00:28:10;;;;;;;;;;;;;;;-144.31;77.60;74115.81;4977744;28;19918;-74
2021/06/17 00:30:38;;;;;;;;;;;;;;;-144.31;77.86;74119.81;4966511;28;20357;-74
2021/06/17 00:33:04;;;;;;;;;;;;;;;-144.31;78.11;74133.78;4965494;28;20447;-75
2021/06/17 00:35:30;;;;;;;;;;;;;;;-144.31;78.32;74139.78;4960826;28;20001;-75
2021/06/17 00:37:56;;;;;;;;;;;;;;;-144.31;78.44;74129.81;4979648;28;19914;-76
2021/06/17 00:40:22;;;;;;;;;;;;;;;-144.31;78.54;74125.81;4963848;28;19921;-75
2021/06/17 00:42:48;;;;;;;;;;;;;;;-144.31;78.60;74117.81;4959683;28;19918;-74
2021/06/17 00:45:22;;;;;;;;;;;;;;;-144.31;78.45;74091.88;4979813;28;19914;-74
2021/06/17 00:47:47;;;;;;;;;;;;;;;-144.31;78.60;74099.84;4977810;28;20463;-74
2021/06/17 00:50:13;;;;;;;;;;;;;;;-144.31;78.79;74111.84;4963863;28;20488;-75
2021/06/17 00:52:38;;;;;;;;;;;;;;;-144.31;78.99;74127.81;4975292;28;20020;-74
2021/06/17 00:55:07;;;;;;;;;;;;;;;-144.31;79.08;74147.78;4963345;28;19926;-75
2021/06/17 00:57:33;;;;;;;;;;;;;;;-144.31;79.22;74163.75;4960166;28;19923;-74
2021/06/17 01:00:00;;;;;;;;;;;;;;;-144.31;79.31;74187.72;4963268;28;19914;-75
2021/06/17 01:02:28;;;;;;;;;;;;;;;-144.31;79.38;74197.69;4965189;28;20378;-76
2021/06/17 01:04:53;;;;;;;;;;;;;;;-144.31;79.42;74217.66;4960679;28;19918;-75
2021/06/17 01:07:39;;;;;;;;;;;;;;;-144.31;79.22;74221.66;4976644;28;19914;-74
2021/06/17 01:10:28;;;;;;;;;;;;;;;-144.31;78.95;74231.63;4946299;28;19997;-74
2021/06/17 01:13:06;;;;;;;;;;;;;;;-144.31;78.81;74231.63;4962142;28;19926;-74
2021/06/17 01:15:35;;;;;;;;;;;;;;;-144.31;78.65;74227.63;4960046;28;19919;-74
2021/06/17 01:18:14;;;;;;;;;;;;;;;-144.31;78.35;74219.66;4979928;28;20005;-74
2021/06/17 01:20:48;;;;;;;;;;;;;;;-144.31;78.02;74203.69;4964600;28;20347;-74
2021/06/17 01:23:16;;;;;;;;;;;;;;;-144.31;77.93;74197.69;4965359;28;19921;-74
2021/06/17 01:26:01;;;;;;;;;;;;;;;-144.31;77.80;74193.69;4944153;29;19918;-74
2021/06/17 01:28:27;;;;;;;;;;;;;;;-144.31;77.74;74205.69;4962717;28;20037;-75
2021/06/17 01:31:03;;;;;;;;;;;;;;;-144.31;77.70;74207.69;4961369;28;19918;-75
2021/06/17 01:33:32;;;;;;;;;;;;;;;-144.31;77.72;74227.63;4960269;28;19924;-76
2021/06/17 01:36:02;;;;;;;;;;;;;;;-144.31;77.72;74239.63;4960724;28;19922;-74
2021/06/17 01:38:31;;;;;;;;;;;;;;;-144.31;77.67;74253.59;4976913;28;19924;-75
2021/06/17 01:40:57;;;;;;;;;;;;;;;-144.31;77.67;74257.59;4975121;28;20001;-76
2021/06/17 01:43:23;;;;;;;;;;;;;;;-144.31;77.38;74257.59;4936038;28;20025;-74
2021/06/17 01:45:49;;;;;;;;;;;;;;;-144.31;77.37;74263.56;4959873;28;19914;-74
2021/06/17 01:48:15;;;;;;;;;;;;;;;-144.31;77.28;74267.56;4975541;28;19914;-74
2021/06/17 01:50:42;;;;;;;;;;;;;;;-144.31;77.08;74271.56;4959338;28;19925;-75
2021/06/17 01:53:11;;;;;;;;;;;;;;;-144.31;76.80;74273.56;4973459;28;19969;-74
2021/06/17 01:55:40;;;;;;;;;;;;;;;-144.31;76.80;74271.56;4959502;28;19929;-74
2021/06/17 01:58:07;;;;;;;;;;;;;;;-144.31;76.83;74285.53;4960318;28;19914;-74
2021/06/17 02:00:34;;;;;;;;;;;;;;;-144.31;76.78;74287.53;4957058;28;20352;-74
2021/06/17 02:03:01;;;;;;;;;;;;;;;-144.31;76.56;74295.53;4961864;28;19922;-75
2021/06/17 02:05:27;;;;;;;;;;;;;;;-144.31;76.47;74299.53;4961074;28;19925;-75
2021/06/17 02:07:53;;;;;;;;;;;;;;;-144.31;76.32;74291.53;4963482;28;20300;-74
2021/06/17 02:10:19;;;;;;;;;;;;;;;-144.31;76.22;74291.53;4973913;28;19922;-75
2021/06/17 02:12:45;;;;;;;;;;;;;;;-144.31;76.22;74299.53;4957720;28;19914;-75
2021/06/17 02:15:11;;;;;;;;;;;;;;;-144.31;75.97;74299.53;4970679;28;19945;-74
2021/06/17 02:17:37;;;;;;;;;;;;;;;-144.31;75.76;74297.53;4970939;28;19973;-74
2021/06/17 02:20:04;;;;;;;;;;;;;;;-144.31;75.98;74305.50;4958111;28;19918;-75
2021/06/17 02:22:30;;;;;;;;;;;;;;;-144.31;75.90;74305.50;4959200;28;19976;-74
2021/06/17 02:24:56;;;;;;;;;;;;;;;-144.31;75.67;74319.50;4961156;28;20338;-74
2021/06/17 02:27:26;;;;;;;;;;;;;;;-144.31;75.65;74311.50;4958664;28;19978;-75
2021/06/17 02:29:52;;;;;;;;;;;;;;;-144.31;75.66;74329.47;4964312;28;19918;-76
2021/06/17 02:32:21;;;;;;;;;;;;;;;-144.31;75.62;74317.50;4955852;28;19915;-76
2021/06/17 02:34:48;;;;;;;;;;;;;;;-144.31;75.26;74299.53;4961324;28;20308;-75
2021/06/17 02:37:14;;;;;;;;;;;;;;;-144.31;75.13;74289.53;4959632;28;19929;-74
2021/06/17 02:39:41;;;;;;;;;;;;;;;-144.31;75.00;74287.53;4962584;28;19918;-75
2021/06/17 02:42:10;;;;;;;;;;;;;;;-144.31;74.91;74279.56;4960034;28;19918;-74
2021/06/17 02:44:35;;;;;;;;;;;;;;;-144.31;74.89;74285.53;4974222;28;20381;-76
2021/06/17 02:47:01;;;;;;;;;;;;;;;-144.31;74.99;74297.53;4963163;28;19925;-76
2021/06/17 02:49:27;;;;;;;;;;;;;;;-144.31;75.06;74311.50;4960278;28;19929;-75
2021/06/17 02:51:52;;;;;;;;;;;;;;;-144.31;75.22;74323.47;4960514;28;20012;-75
2021/06/17 02:54:23;;;;;;;;;;;;;;;-144.31;75.27;74335.47;4959031;28;19922;-75
2021/06/17 02:56:59;;;;;;;;;;;;;;;-144.31;75.33;74349.44;4971852;28;19918;-76
2021/06/17 02:59:37;;;;;;;;;;;;;;;-144.31;75.27;74359.41;4976986;28;19918;-76
2021/06/17 03:02:10;;;;;;;;;;;;;;;-144.31;75.18;74363.41;4943403;29;19921;-75
2021/06/17 03:04:51;;;;;;;;;;;;;;;-144.31;75.11;74365.41;4959656;28;20255;-76
2021/06/17 03:07:23;;;;;;;;;;;;;;;-144.31;74.98;74359.41;4956450;28;19937;-75
2021/06/17 03:10:15;;;;;;;;;;;;;;;-144.31;74.90;74359.41;4957860;28;19914;-74
2021/06/17 03:12:44;;;;;;;;;;;;;;;-144.31;74.94;74367.41;4958891;28;19914;-74
2021/06/17 03:15:10;;;;;;;;;;;;;;;-144.31;74.95;74373.41;4961241;28;19918;-75
2021/06/17 03:17:39;;;;;;;;;;;;;;;-144.31;74.97;74379.38;4957829;28;19918;-74
2021/06/17 03:20:05;;;;;;;;;;;;;;;-144.31;74.93;74383.38;4976419;28;19915;-74
2021/06/17 03:22:32;;;;;;;;;;;;;;;-144.31;74.96;74383.38;4974230;28;19918;-75
2021/06/17 03:25:01;;;;;;;;;;;;;;;-144.31;74.97;74391.38;4958798;28;20036;-75
2021/06/17 03:27:27;;;;;;;;;;;;;;;-144.31;74.97;74393.38;4958886;28;19926;-75
2021/06/17 03:29:52;;;;;;;;;;;;;;;-144.31;74.96;74403.34;4970435;28;19915;-74
2021/06/17 03:32:20;;;;;;;;;;;;;;;-144.31;74.95;74397.34;4958590;28;20424;-74
2021/06/17 03:34:46;;;;;;;;;;;;;;;-144.31;74.91;74395.38;4961674;28;20284;-75
2021/06/17 03:37:13;;;;;;;;;;;;;;;-144.31;74.86;74395.38;4974511;28;19918;-74
2021/06/17 03:39:40;;;;;;;;;;;;;;;-144.31;74.80;74395.38;4961472;28;19918;-74
2021/06/17 03:42:09;;;;;;;;;;;;;;;-144.31;74.79;74395.38;4969365;28;19925;-75
2021/06/17 03:44:35;;;;;;;;;;;;;;;-144.31;74.70;74391.38;4960586;28;19918;-74
2021/06/17 03:47:04;;;;;;;;;;;;;;;-144.31;74.69;74395.38;4960768;28;20304;-75
2021/06/17 03:49:30;;;;;;;;;;;;;;;-144.31;74.63;74397.34;4959638;28;19942;-74
2021/06/17 03:51:58;;;;;;;;;;;;;;;-144.31;74.61;74399.34;4976471;28;20268;-75
2021/06/17 03:54:26;;;;;;;;;;;;;;;-144.31;74.64;74405.34;4962442;28;19929;-76
2021/06/17 03:56:57;;;;;;;;;;;;;;;-144.31;74.64;74407.34;4958670;28;19914;-75
2021/06/17 03:59:26;;;;;;;;;;;;;;;-144.31;74.61;74395.38;4960270;28;19918;-76
2021/06/17 04:01:55;;;;;;;;;;;;;;;-144.31;74.63;74391.38;4971859;28;19945;-76
2021/06/17 04:04:23;;;;;;;;;;;;;;;-144.31;74.52;74373.41;4962341;28;20056;-75
2021/06/17 04:06:51;;;;;;;;;;;;;;;-144.31;74.59;74377.38;4975462;28;20273;-75
2021/06/17 04:09:28;;;;;;;;;;;;;;;-144.31;74.60;74373.41;4973701;28;19919;-76
2021/06/17 04:11:58;;;;;;;;;;;;;;;-144.31;74.48;74331.47;4958760;28;20340;-74
2021/06/17 04:14:24;;;;;;;;;;;;;;;-144.31;74.44;74293.53;4961790;28;20080;-74
2021/06/17 04:16:51;;;;;;;;;;;;;;;-144.31;74.57;74277.56;4962882;28;19918;-75
2021/06/17 04:19:19;;;;;;;;;;;;;;;-144.31;74.82;74275.56;4960832;28;19910;-75
2021/06/17 04:21:45;;;;;;;;;;;;;;;-144.31;75.12;74273.56;4961392;28;19918;-75
2021/06/17 04:24:12;;;;;;;;;;;;;;;-144.31;75.38;74275.56;4958834;28;20022;-74
2021/06/17 04:26:38;;;;;;;;;;;;;;;-144.31;75.67;74279.56;4961896;28;20082;-75
2021/06/17 04:29:03;;;;;;;;;;;;;;;-144.31;75.85;74275.56;4961682;28;20380;-74
2021/06/17 04:31:29;;;;;;;;;;;;;;;-144.31;75.97;74271.56;4974079;28;19954;-75
2021/06/17 04:33:54;;;;;;;;;;;;;;;-144.31;76.12;74267.56;4973544;28;19933;-75
2021/06/17 04:36:22;;;;;;;;;;;;;;;-144.31;76.23;74259.59;4954325;28;19925;-75
2021/06/17 04:38:48;;;;;;;;;;;;;;;-144.31;76.38;74255.59;4963011;28;19914;-74
2021/06/17 04:41:17;;;;;;;;;;;;;;;-144.31;76.52;74245.59;4975649;28;19929;-75
2021/06/17 04:43:44;;;;;;;;;;;;;;;-144.31;76.61;74227.63;4962561;28;19918;-74
2021/06/17 04:46:10;;;;;;;;;;;;;;;-144.31;76.74;74211.66;4960237;28;19914;-74
2021/06/17 04:48:37;;;;;;;;;;;;;;;-144.31;76.92;74195.69;4960809;28;20320;-75
2021/06/17 04:51:03;;;;;;;;;;;;;;;-144.31;77.06;74175.72;4972249;28;19918;-74
2021/06/17 04:53:29;;;;;;;;;;;;;;;-144.31;77.25;74157.75;4943367;28;19918;-74
2021/06/17 04:55:57;;;;;;;;;;;;;;;-144.31;77.53;74139.78;4976832;28;19914;-75
2021/06/17 04:58:23;;;;;;;;;;;;;;;-144.31;77.83;74123.81;4976031;28;20407;-74
2021/06/17 05:00:49;;;;;;;;;;;;;;;-144.31;78.13;74109.84;4964935;28;20388;-75
2021/06/17 05:03:15;;;;;;;;;;;;;;;-144.31;78.49;74087.88;4959167;28;20127;-75
2021/06/17 05:05:40;;;;;;;;;;;;;;;-144.31;78.93;74047.94;4963402;28;19921;-75
2021/06/17 05:10:57;;;;;;;;;;;;;;;-144.31;80.41;73990.03;4968117;28;20701;-77
2021/06/17 05:13:25;;;;;;;;;;;;;;;-144.31;81.29;73946.13;4989839;28;19914;-76
2021/06/17 05:15:52;;;;;;;;;;;;;;;-144.31;82.08;73904.19;4955759;28;19930;-75
2021/06/17 05:18:18;;;;;;;;;;;;;;;-144.31;83.32;73872.25;4958552;28;19916;-75
2021/06/17 05:20:43;;;;;;;;;;;;;;;-144.31;85.06;73834.31;4967087;28;20296;-75
2021/06/17 05:23:16;;;;;;;;;;;;;;;-144.31;87.26;73784.41;4958326;28;19917;-76
2021/06/17 05:25:42;;;;;;;;;;;;;;;-144.31;90.76;73740.50;4973037;28;20448;-73
2021/06/17 05:28:08;;;;;;;;;;;;;;;-144.31;96.64;73704.56;4967172;28;20005;-76
2021/06/17 05:30:36;;;;;;;;;;;;;;;-144.31;100.00;73692.56;4941221;28;20471;-76
2021/06/17 05:33:01;;;;;;;;;;;;;;;-144.31;100.00;73676.59;4965985;28;19972;-76
2021/06/17 05:35:27;;;;;;;;;;;;;;;-144.31;100.00;73660.63;4968430;28;19922;-76
2021/06/17 05:37:53;;;;;;;;;;;;;;;-144.31;100.00;73644.66;4964720;28;19961;-76
2021/06/17 05:40:19;;;;;;;;;;;;;;;-144.31;100.00;73624.69;4950372;28;19922;-76
2021/06/17 05:42:44;;;;;;;;;;;;;;;-144.31;100.00;73616.72;4961721;28;20315;-75
2021/06/17 05:45:10;;;;;;;;;;;;;;;-144.31;100.00;73610.72;4973268;28;19929;-75
2021/06/17 05:47:35;;;;;;;;;;;;;;;-144.31;100.00;73592.75;4975757;28;19925;-75
2021/06/17 05:50:01;;;;;;;;;;;;;;;-144.31;100.00;73580.78;4962126;28;19918;-76
2021/06/17 05:52:26;;;;;;;;;;;;;;;-144.31;100.00;73568.81;4960149;28;20028;-77
2021/06/17 05:54:52;;;;;;;;;;;;;;;-144.31;100.00;73552.84;4978621;28;20279;-76
2021/06/17 05:57:17;;;;;;;;;;;;;;;-144.31;100.00;73532.88;4955779;28;20012;-76
2021/06/17 05:59:42;;;;;;;;;;;;;;;-144.31;100.00;73516.91;4962871;28;19918;-76
2021/06/17 06:02:11;;;;;;;;;;;;;;;-144.31;100.00;73502.91;4958754;28;19918;-75
2021/06/17 06:04:36;;;;;;;;;;;;;;;-144.31;100.00;73472.97;4965782;28;19910;-79
2021/06/17 06:07:02;;;;;;;;;;;;;;;-144.31;100.00;73451.03;4976912;28;19925;-79
2021/06/17 06:09:30;;;;;;;;;;;;;;;-144.31;100.00;73423.06;4964493;28;19918;-79
2021/06/17 06:11:55;;;;;;;;;;;;;;;-144.31;100.00;73401.13;4975858;28;19914;-78
2021/06/17 06:14:20;;;;;;;;;;;;;;;-144.31;100.00;73381.16;4958301;28;20422;-77
2021/06/17 06:16:46;;;;;;;;;;;;;;;-144.31;100.00;73349.22;4975278;28;20004;-77
2021/06/17 06:19:12;;;;;;;;;;;;;;;-144.31;100.00;73325.25;4963473;28;20021;-78
2021/06/17 06:21:37;;;;;;;;;;;;;;;-144.31;100.00;73305.28;4975489;28;20419;-78
2021/06/17 06:24:03;;;;;;;;;;;;;;;-144.31;100.00;73281.34;4958968;28;19944;-78
2021/06/17 06:26:28;;;;;;;;;;;;;;;-144.31;100.00;73265.38;4961732;28;19949;-77
2021/06/17 06:28:53;;;;;;;;;;;;;;;-144.31;100.00;73233.44;4978051;28;19930;-78
2021/06/17 06:31:19;;;;;;;;;;;;;;;-144.31;100.00;73199.50;4960522;28;20128;-77
2021/06/17 06:33:44;;;;;;;;;;;;;;;-144.31;100.00;73173.56;4961261;28;20323;-78
2021/06/17 06:36:10;;;;;;;;;;;;;;;-144.31;100.00;73147.59;4962586;28;20286;-77
2021/06/17 06:38:35;;;;;;;;;;;;;;;-144.31;100.00;73125.63;4973851;28;20395;-78
2021/06/17 06:41:01;;;;;;;;;;;;;;;-144.31;100.00;73101.69;4974575;28;19942;-78
2021/06/17 06:43:28;;;;;;;;;;;;;;;-144.31;100.00;73091.72;4977608;28;19918;-78
2021/06/17 06:45:54;;;;;;;;;;;;;;;-144.31;100.00;73055.78;4949182;28;19945;-77
2021/06/17 06:48:19;;;;;;;;;;;;;;;-144.31;100.00;73027.84;4941903;28;19918;-78
2021/06/17 06:50:48;;;;;;;;;;;;;;;-144.31;100.00;73001.88;4955149;28;19960;-78
2021/06/17 06:53:13;;;;;;;;;;;;;;;-144.31;100.00;72971.94;4979157;28;19918;-77
2021/06/17 06:55:39;;;;;;;;;;;;;;;-144.31;100.00;72959.97;4979590;28;19981;-76
2021/06/17 06:58:04;;;;;;;;;;;;;;;-144.31;100.00;72936.00;4978674;28;19922;-77
2021/06/17 07:00:29;;;;;;;;;;;;;;;-144.31;100.00;72914.06;4965947;28;20482;-76
2021/06/17 07:02:55;;;;;;;;;;;;;;;-144.31;100.00;72906.06;4959526;28;20084;-76
2021/06/17 07:05:20;;;;;;;;;;;;;;;-144.31;100.00;72892.09;4974314;28;19918;-76
2021/06/17 07:07:48;;;;;;;;;;;;;;;-144.31;100.00;72870.16;4960205;28;20336;-76
2021/06/17 07:10:13;;;;;;;;;;;;;;;-144.31;100.00;72842.22;4975693;28;19925;-73
2021/06/17 07:12:39;;;;;;;;;;;;;;;-144.31;100.00;72812.25;4971484;28;19914;-75
2021/06/17 07:15:05;;;;;;;;;;;;;;;-144.31;100.00;72822.25;4975016;28;20377;-72
2021/06/17 07:17:30;;;;;;;;;;;;;;;-144.31;100.00;72772.34;4961182;28;19930;-73
2021/06/17 07:19:56;;;;;;;;;;;;;;;-144.31;100.00;72756.38;4959050;28;19934;-75
2021/06/17 07:22:22;;;;;;;;;;;;;;;-144.31;100.00;72734.44;4961183;28;19926;-73
2021/06/17 07:24:48;;;;;;;;;;;;;;;-144.31;100.00;72730.44;4974184;28;19929;-74
2021/06/17 07:27:13;;;;;;;;;;;;;;;-144.31;100.00;72702.50;4960912;28;19917;-74
2021/06/17 07:29:41;;;;;;;;;;;;;;;-144.31;100.00;72714.47;4962427;28;19985;-74
2021/06/17 07:32:08;;;;;;;;;;;;;;;-144.31;100.00;72722.44;4963519;28;20045;-74
2021/06/17 07:34:36;;;;;;;;;;;;;;;-144.31;100.00;72686.53;4965638;28;19922;-74
2021/06/17 07:37:02;;;;;;;;;;;;;;;-144.31;100.00;72644.63;4963952;28;19918;-74
2021/06/17 07:39:27;;;;;;;;;;;;;;;-144.31;100.00;72650.59;4978229;28;19902;-74
2021/06/17 07:41:55;;;;;;;;;;;;;;;-144.31;100.00;72622.66;4958161;28;19918;-75
2021/06/17 07:44:20;;;;;;;;;;;;;;;-144.31;100.00;72598.72;4960654;28;19976;-75
2021/06/17 07:46:46;;;;;;;;;;;;;;;-144.31;100.00;72610.69;4976231;28;20393;-74
2021/06/17 07:49:11;;;;;;;;;;;;;;;-144.31;100.00;72568.78;4959073;28;19922;-74
2021/06/17 07:51:37;;;;;;;;;;;;;;;-144.31;100.00;72534.84;4961586;28;19941;-74
2021/06/17 07:54:03;;;;;;;;;;;;;;;-144.31;100.00;72528.84;4973170;28;19914;-74
2021/06/17 07:56:29;;;;;;;;;;;;;;;-144.31;100.00;72532.84;4959924;28;19929;-75
2021/06/17 07:59:00;;;;;;;;;;;;;;;-144.31;100.00;72510.88;4955389;28;19936;-75
2021/06/17 08:01:26;;;;;;;;;;;;;;;-144.31;100.00;72486.94;4960083;28;20387;-75
2021/06/17 08:03:51;;;;;;;;;;;;;;;-144.31;100.00;72466.97;4963843;28;19929;-75
2021/06/17 08:06:17;;;;;;;;;;;;;;;-144.31;100.00;72468.97;4962884;28;20014;-75
2021/06/17 08:08:42;;;;;;;;;;;;;;;-144.31;100.00;72431.06;4960102;28;19914;-74
2021/06/17 08:11:08;;;;;;;;;;;;;;;-144.31;100.00;72405.13;4961125;28;20367;-75
2021/06/17 08:13:34;;;;;;;;;;;;;;;-144.31;100.00;72449.03;4958147;28;19918;-75
2021/06/17 08:15:59;;;;;;;;;;;;;;;-144.31;100.00;72429.06;4961757;28;20495;-76
2021/06/17 08:18:24;;;;;;;;;;;;;;;-144.31;100.00;72367.19;4978582;28;19918;-75
2021/06/17 08:20:54;;;;;;;;;;;;;;;-144.31;100.00;72373.19;4956471;28;19918;-72
2021/06/17 08:23:21;;;;;;;;;;;;;;;-144.31;100.00;72423.06;4961095;28;19914;-73
2021/06/17 08:25:48;;;;;;;;;;;;;;;-144.31;100.00;72351.22;4961566;28;20387;-75
2021/06/17 08:28:14;;;;;;;;;;;;;;;-144.31;100.00;72345.25;4974296;28;19922;-74
2021/06/17 08:30:42;;;;;;;;;;;;;;;-144.31;100.00;72367.19;4964678;28;20418;-75
2021/06/17 08:33:07;;;;;;;;;;;;;;;-144.31;100.00;72335.25;4975601;28;19918;-74
2021/06/17 08:35:33;;;;;;;;;;;;;;;-144.31;100.00;72275.41;4962868;28;19922;-74
2021/06/17 08:37:58;;;;;;;;;;;;;;;-144.31;100.00;72277.38;4979257;28;20061;-75
2021/06/17 08:40:28;;;;;;;;;;;;;;;-144.31;100.00;72311.31;4958923;28;19964;-75
2021/06/17 08:42:54;;;;;;;;;;;;;;;-144.31;100.00;72257.44;4963665;28;20369;-74
2021/06/17 08:45:19;;;;;;;;;;;;;;;-144.31;100.00;72263.41;4963358;28;19921;-75
2021/06/17 08:47:46;;;;;;;;;;;;;;;-144.31;100.00;72277.38;4979223;28;20418;-75
2021/06/17 08:50:12;;;;;;;;;;;;;;;-144.31;100.00;72285.38;4958518;28;19918;-74
2021/06/17 08:52:43;;;;;;;;;;;;;;;-144.31;100.00;72285.38;4975618;28;19923;-74
2021/06/17 08:55:11;;;;;;;;;;;;;;;-144.31;100.00;72239.47;4963566;28;19933;-76
2021/06/17 08:57:39;;;;;;;;;;;;;;;-144.31;100.00;72207.53;4981734;28;19914;-74
2021/06/17 09:00:19;;;;;;;;;;;;;;;-144.31;100.00;72163.63;4962629;28;19918;-75
2021/06/17 09:02:52;;;;;;;;;;;;;;;-144.31;100.00;72133.69;4961680;28;20381;-75
2021/06/17 09:05:18;;;;;;;;;;;;;;;-144.31;100.00;72117.75;4964969;28;19918;-74
2021/06/17 09:07:44;;;;;;;;;;;;;;;-144.31;100.00;72093.78;4962240;28;19918;-75
2021/06/17 09:10:09;;;;;;;;;;;;;;;-144.31;100.00;72125.72;4968278;28;19949;-75
2021/06/17 09:12:47;;;;;;;;;;;;;;;-144.31;100.00;72155.66;4965837;28;19925;-75
2021/06/17 09:15:13;;;;;;;;;;;;;;;-144.31;100.00;72111.75;4978270;28;20399;-75
2021/06/17 09:17:39;;;;;;;;;;;;;;;-144.31;100.00;72183.59;4959669;28;19918;-75
2021/06/17 09:20:05;;;;;;;;;;;;;;;-144.31;100.00;72143.69;4966547;28;20440;-75
2021/06/17 09:22:35;;;;;;;;;;;;;;;-144.31;100.00;72047.91;4962637;28;20050;-75
2021/06/17 09:25:00;;;;;;;;;;;;;;;-144.31;100.00;72043.91;4960591;28;20439;-75
2021/06/17 09:27:30;;;;;;;;;;;;;;;-144.31;100.00;72009.97;4963425;28;19953;-75
2021/06/17 09:29:57;;;;;;;;;;;;;;;-144.31;100.00;72047.91;4962441;28;19926;-76
2021/06/17 09:32:25;;;;;;;;;;;;;;;-144.31;100.00;72021.94;4977004;28;19921;-76
2021/06/17 09:34:53;;;;;;;;;;;;;;;-144.31;100.00;72151.66;4962314;28;19934;-74
2021/06/17 09:37:31;;;;;;;;;;;;;;;-144.31;100.00;71976.06;4978964;28;19918;-75
2021/06/17 09:39:57;;;;;;;;;;;;;;;-144.31;100.00;71928.16;4962435;28;19917;-75
2021/06/17 09:42:27;;;;;;;;;;;;;;;-144.31;100.00;71952.09;4958668;28;19917;-75
2021/06/17 09:44:53;;;;;;;;;;;;;;;-144.31;100.00;71926.16;4960356;28;19918;-74
2021/06/17 09:47:18;;;;;;;;;;;;;;;-144.31;100.00;71932.16;4964426;28;19937;-75
2021/06/17 09:49:45;;;;;;;;;;;;;;;-144.31;100.00;71908.22;4980793;28;19961;-75
2021/06/17 09:52:13;;;;;;;;;;;;;;;-144.31;100.00;71868.28;4976093;28;20018;-74
2021/06/17 09:54:43;;;;;;;;;;;;;;;-144.31;100.00;71820.41;4958794;28;19918;-73
2021/06/17 09:57:11;;;;;;;;;;;;;;;-144.31;100.00;71700.69;4978380;28;20472;-75
2021/06/17 09:59:37;;;;;;;;;;;;;;;-144.31;98.55;71646.81;4960072;28;19940;-74
2021/06/17 10:02:03;;;;;;;;;;;;;;;-144.31;100.00;71828.38;4961775;28;20538;-75
2021/06/17 10:04:29;;;;;;;;;;;;;;;-144.31;100.00;71916.19;4960068;28;19918;-76
2021/06/17 10:06:55;;;;;;;;;;;;;;;-144.31;100.00;71978.06;4972160;28;19922;-75
2021/06/17 10:09:20;;;;;;;;;;;;;;;-144.31;100.00;71918.19;4959325;28;19918;-75
2021/06/17 10:11:47;;;;;;;;;;;;;;;-144.31;100.00;72047.91;4973612;28;19918;-74
2021/06/17 10:14:13;;;;;;;;;;;;;;;-144.31;100.00;72039.91;4961542;28;20332;-74
2021/06/17 10:16:40;;;;;;;;;;;;;;;-144.31;100.00;71964.09;4975128;28;20743;-74
2021/06/17 10:19:05;;;;;;;;;;;;;;;-144.31;100.00;71938.13;4961781;28;19921;-74
2021/06/17 10:21:34;;;;;;;;;;;;;;;-144.31;100.00;71916.19;4974676;28;20237;-75
2021/06/17 10:24:01;;;;;;;;;;;;;;;-144.31;100.00;71910.19;4977737;28;19914;-73
2021/06/17 10:26:31;;;;;;;;;;;;;;;-144.31;100.00;71908.22;4957732;28;19962;-75
2021/06/17 10:28:59;;;;;;;;;;;;;;;-144.31;100.00;71840.34;4962145;28;20004;-74
2021/06/17 10:31:44;;;;;;;;;;;;;;;-144.31;100.00;71842.34;4958305;28;20369;-76
2021/06/17 10:34:22;;;;;;;;;;;;;;;-144.31;100.00;71794.47;4973688;28;19946;-73
2021/06/17 10:37:05;;;;;;;;;;;;;;;-144.31;100.00;71764.53;4960624;28;19918;-74
2021/06/17 10:39:43;;;;;;;;;;;;;;;-144.31;100.00;71820.41;4959082;28;20013;-74
2021/06/17 10:42:10;;;;;;;;;;;;;;;-144.31;100.00;71780.50;4960292;28;19957;-76
2021/06/17 10:44:38;;;;;;;;;;;;;;;-144.31;100.00;71800.44;4972934;28;20364;-75
2021/06/17 10:47:04;;;;;;;;;;;;;;;-144.31;100.00;71776.50;4961548;28;19918;-74
2021/06/17 10:49:42;;;;;;;;;;;;;;;-144.31;100.00;71748.56;4974111;28;19953;-74
2021/06/17 10:52:34;;;;;;;;;;;;;;;-144.31;100.00;71792.47;4959572;28;19918;-75
2021/06/17 10:55:03;;;;;;;;;;;;;;;-144.31;100.00;71704.66;4958663;28;19922;-74
2021/06/17 11:00:26;;;;;;;;;;;;;;;-144.31;100.00;71824.41;4958425;28;19934;-74
2021/06/17 11:02:57;;;;;;;;;;;;;;;-144.31;100.00;71772.50;4957468;28;19925;-75
2021/06/17 11:05:29;;;;;;;;;;;;;;;-144.31;98.59;71752.56;4961446;28;20068;-75
2021/06/17 11:08:15;;;;;;;;;;;;;;;-144.31;100.00;71698.69;4958694;28;19918;-75
2021/06/17 11:10:45;;;;;;;;;;;;;;;-144.31;96.14;71658.78;4957046;28;19968;-74
2021/06/17 11:13:25;;;;;;;;;;;;;;;-144.31;94.95;71720.63;4959860;28;19925;-74
2021/06/17 11:15:51;;;;;;;;;;;;;;;-144.31;93.04;71680.72;4960624;28;20407;-73
2021/06/17 11:18:37;;;;;;;;;;;;;;;-144.31;91.04;71656.78;4973325;28;19918;-75
2021/06/17 11:21:04;;;;;;;;;;;;;;;-144.31;98.31;71718.63;4960154;28;19965;-74
2021/06/17 11:23:31;;;;;;;;;;;;;;;-144.31;100.00;71592.94;4960468;28;20021;-75
2021/06/17 11:25:57;;;;;;;;;;;;;;;-144.31;91.24;71578.97;4960656;28;19914;-74
2021/06/17 11:28:44;;;;;;;;;;;;;;;-144.31;100.00;71580.97;4975512;28;20392;-74
2021/06/17 11:31:10;;;;;;;;;;;;;;;-144.31;90.02;71561.00;4960082;28;19985;-74
2021/06/17 11:33:40;;;;;;;;;;;;;;;-144.31;83.62;71383.44;4958890;28;20320;-75
2021/06/17 11:36:10;;;;;;;;;;;;;;;-144.31;83.49;71405.38;4958292;28;19926;-75
2021/06/17 11:38:36;;;;;;;;;;;;;;;-144.31;74.86;71146.00;4961537;28;20020;-75
2021/06/17 11:41:13;;;;;;;;;;;;;;;-144.31;76.38;71138.03;4972866;28;19919;-76
2021/06/17 11:43:40;;;;;;;;;;;;;;;-144.31;82.06;71319.59;4960287;28;19922;-75
2021/06/17 11:46:17;;;;;;;;;;;;;;;-144.31;79.11;71217.81;4963565;28;19921;-73
2021/06/17 11:48:50;;;;;;;;;;;;;;;-144.31;70.97;70978.41;4957376;28;19918;-75
2021/06/17 11:51:15;;;;;;;;;;;;;;;-144.31;63.81;70888.63;4961875;28;20431;-70
2021/06/17 11:53:46;;;;;;;;;;;;;;;-144.31;63.33;70832.78;4961705;28;19918;-76
2021/06/17 11:56:22;;;;;;;;;;;;;;;-144.31;69.53;71110.09;4962600;28;20320;-70
2021/06/17 11:58:49;;;;;;;;;;;;;;;-144.31;82.48;71477.19;4961955;28;20375;-71
2021/06/17 12:01:15;;;;;;;;;;;;;;;-144.31;91.32;71485.19;4963324;28;20032;-71
2021/06/17 12:03:50;;;;;;;;;;;;;;;-144.31;86.72;71257.72;4960314;28;20048;-70
2021/06/17 12:06:16;;;;;;;;;;;;;;;-144.31;80.96;71307.59;4958568;28;19922;-71
2021/06/17 12:08:41;;;;;;;;;;;;;;;-144.31;72.07;71110.09;4961792;28;19913;-72
2021/06/17 12:11:20;;;;;;;;;;;;;;;-144.31;76.99;71329.56;4959085;28;19918;-72
2021/06/17 12:13:49;;;;;;;;;;;;;;;-144.31;77.28;71287.66;4957015;28;19929;-72
2021/06/17 12:16:17;;;;;;;;;;;;;;;-144.31;66.33;70988.38;4964740;28;20467;-72
2021/06/17 12:18:42;;;;;;;;;;;;;;;-144.31;68.85;71100.13;4962163;28;19925;-73
2021/06/17 12:21:08;;;;;;;;;;;;;;;-144.31;56.90;70607.34;4960484;28;19921;-72
2021/06/17 12:23:36;;;;;;;;;;;;;;;-144.31;62.63;70731.03;4962102;28;19965;-72
2021/06/17 12:26:02;;;;;;;;;;;;;;;-144.31;61.25;70842.75;4978183;28;19983;-71
2021/06/17 12:28:28;;;;;;;;;;;;;;;-144.31;60.75;70808.84;4965173;28;19943;-71
2021/06/17 12:30:55;;;;;;;;;;;;;;;-144.31;70.95;71090.13;4977459;28;19980;-73
2021/06/17 12:33:21;;;;;;;;;;;;;;;-144.31;64.16;71126.06;4959803;28;19925;-71